Time;durP1;ratioP1;P1;durP2;ratioP2;P2;SDS_P1;SDS_P2;PMS_P1;PMS_P2;Temp;Humidity;BMP_temperature;BMP_pressure;BME280_temperature;BME280_humidity;BME280_pressure;Samples;Min_cycle;Max_cycle;Signal;HPM_P1;HPM_P2
2023/03/05 00:01:08;;;;;;;;;;;;;;;4.17;nan;100935.28;5009009;28;20031;-86
2023/03/05 00:03:34;;;;;;;;;;;;;;;4.15;nan;100931.94;5009402;28;19922;-88
2023/03/05 00:05:59;;;;;;;;;;;;;;;4.14;nan;100928.47;4992233;28;19917;-86
2023/03/05 00:08:24;;;;;;;;;;;;;;;4.14;nan;100932.88;5008169;28;19921;-87
2023/03/05 00:11:00;;;;;;;;;;;;;;;4.11;nan;100927.84;4991410;28;19917;-87
2023/03/05 00:13:25;;;;;;;;;;;;;;;4.09;nan;100934.97;5012947;28;19952;-86
2023/03/05 00:15:51;;;;;;;;;;;;;;;4.07;nan;100932.44;4992783;28;20424;-86
2023/03/05 00:18:16;;;;;;;;;;;;;;;4.07;nan;100928.97;5009989;28;19921;-87
2023/03/05 00:20:41;;;;;;;;;;;;;;;4.06;nan;100932.56;5008142;28;19925;-87
2023/03/05 00:23:09;;;;;;;;;;;;;;;4.03;nan;100931.81;4985749;28;19924;-86
2023/03/05 00:25:35;;;;;;;;;;;;;;;4.03;nan;100926.56;5015026;28;20004;-86
2023/03/05 00:28:01;;;;;;;;;;;;;;;4.01;nan;100923.22;5004867;28;19981;-88
2023/03/05 00:30:26;;;;;;;;;;;;;;;4.00;nan;100916.31;4994509;28;19925;-86
2023/03/05 00:32:51;;;;;;;;;;;;;;;4.01;nan;100919.75;4995225;28;20004;-86
2023/03/05 00:35:16;;;;;;;;;;;;;;;3.99;nan;100916.41;5009840;28;19918;-86
2023/03/05 00:37:41;;;;;;;;;;;;;;;3.99;nan;100925.09;4989381;28;20024;-86
2023/03/05 00:40:07;;;;;;;;;;;;;;;3.98;nan;100912.97;4993925;28;20020;-86
2023/03/05 00:42:37;;;;;;;;;;;;;;;3.99;nan;100914.63;4991400;28;19917;-88
2023/03/05 00:45:02;;;;;;;;;;;;;;;3.99;nan;100919.03;5010226;28;19921;-87
2023/03/05 00:47:28;;;;;;;;;;;;;;;3.97;nan;100906.03;5010776;28;19924;-89
2023/03/05 00:49:53;;;;;;;;;;;;;;;3.95;nan;100907.06;5011036;28;20398;-87
2023/03/05 00:52:18;;;;;;;;;;;;;;;3.93;nan;100904.56;4992418;28;19959;-87
2023/03/05 00:54:43;;;;;;;;;;;;;;;3.88;nan;100896.16;5010932;28;19909;-86
2023/03/05 00:57:08;;;;;;;;;;;;;;;3.90;nan;100903.91;5011486;28;20428;-87
2023/03/05 00:59:34;;;;;;;;;;;;;;;3.87;nan;100883.19;4993297;28;19917;-86
2023/03/05 01:01:59;;;;;;;;;;;;;;;3.85;nan;100896.38;4989084;28;19919;-88
2023/03/05 01:04:24;;;;;;;;;;;;;;;3.85;nan;100883.28;4992725;28;19948;-87
2023/03/05 01:06:49;;;;;;;;;;;;;;;3.81;nan;100890.50;5011962;28;20304;-86
2023/03/05 01:09:14;;;;;;;;;;;;;;;3.77;nan;100891.63;4995392;28;19917;-85
2023/03/05 01:11:40;;;;;;;;;;;;;;;3.77;nan;100882.94;4994872;28;19918;-85
2023/03/05 01:14:06;;;;;;;;;;;;;;;3.75;nan;100883.03;5010589;28;20157;-87
2023/03/05 01:16:31;;;;;;;;;;;;;;;3.77;nan;100872.50;5011670;28;20553;-87
2023/03/05 01:18:57;;;;;;;;;;;;;;;3.77;nan;100880.34;5012670;28;20007;-85
2023/03/05 01:21:23;;;;;;;;;;;;;;;3.77;nan;100872.50;4994284;28;19926;-85
2023/03/05 01:23:49;;;;;;;;;;;;;;;3.75;nan;100864.75;5010990;28;19940;-85
2023/03/05 01:26:15;;;;;;;;;;;;;;;3.77;nan;100868.09;4994942;28;19921;-88
2023/03/05 01:28:41;;;;;;;;;;;;;;;3.77;nan;100867.25;5018484;28;19940;-88
2023/03/05 01:31:08;;;;;;;;;;;;;;;3.74;nan;100865.69;5017247;28;19943;-87
2023/03/05 01:33:34;;;;;;;;;;;;;;;3.74;nan;100862.22;5014795;28;20094;-88
2023/03/05 01:35:59;;;;;;;;;;;;;;;3.72;nan;100859.72;5031138;28;19918;-88
2023/03/05 01:38:24;;;;;;;;;;;;;;;3.70;nan;100855.53;5022729;28;20417;-88
2023/03/05 01:40:49;;;;;;;;;;;;;;;3.68;nan;100857.38;5003236;28;19918;-88
2023/03/05 01:43:21;;;;;;;;;;;;;;;3.65;nan;100850.59;5001928;28;19933;-88
2023/03/05 01:46:05;;;;;;;;;;;;;;;3.65;nan;100847.97;5000483;28;19994;-88
2023/03/05 01:48:30;;;;;;;;;;;;;;;3.62;nan;100845.53;5009079;28;19956;-88
2023/03/05 01:50:56;;;;;;;;;;;;;;;3.59;nan;100851.81;4989657;28;19918;-88
2023/03/05 01:53:21;;;;;;;;;;;;;;;3.58;nan;100852.75;4999586;28;19940;-88
2023/03/05 01:55:46;;;;;;;;;;;;;;;3.60;nan;100847.44;5017872;28;19927;-88
2023/03/05 01:58:12;;;;;;;;;;;;;;;3.56;nan;100849.38;4994052;28;19921;-85
2023/03/05 02:00:45;;;;;;;;;;;;;;;3.53;nan;100839.13;4994461;28;20290;-85
2023/03/05 02:03:11;;;;;;;;;;;;;;;3.53;nan;100843.53;4994709;28;19921;-86
2023/03/05 02:05:38;;;;;;;;;;;;;;;3.46;nan;100845.69;4994171;28;19980;-85
2023/03/05 02:08:07;;;;;;;;;;;;;;;3.44;nan;100838.91;4991062;28;20363;-87
2023/03/05 02:10:35;;;;;;;;;;;;;;;3.44;nan;100833.66;4993721;28;19921;-87
2023/03/05 02:13:03;;;;;;;;;;;;;;;3.43;nan;100834.59;5002299;28;19969;-87
2023/03/05 02:15:29;;;;;;;;;;;;;;;3.39;nan;100837.41;5008577;28;19931;-87
2023/03/05 02:17:54;;;;;;;;;;;;;;;3.33;nan;100839.56;4992394;28;20380;-87
2023/03/05 02:20:24;;;;;;;;;;;;;;;3.31;nan;100834.47;5013250;28;19939;-87
2023/03/05 02:22:49;;;;;;;;;;;;;;;3.34;nan;100828.19;5017564;28;19917;-88
2023/03/05 02:25:19;;;;;;;;;;;;;;;3.37;nan;100828.81;4998492;28;19917;-85
2023/03/05 02:27:55;;;;;;;;;;;;;;;3.39;nan;100828.72;5012660;28;20009;-85
2023/03/05 02:30:21;;;;;;;;;;;;;;;3.40;nan;100819.94;5012466;28;19924;-85
2023/03/05 02:32:46;;;;;;;;;;;;;;;3.43;nan;100821.50;5010994;28;19917;-86
2023/03/05 02:35:11;;;;;;;;;;;;;;;3.42;nan;100819.84;4992487;28;19961;-85
2023/03/05 02:37:36;;;;;;;;;;;;;;;3.39;nan;100811.25;4990230;28;20366;-87
2023/03/05 02:40:01;;;;;;;;;;;;;;;3.33;nan;100818.66;4993230;28;20419;-85
2023/03/05 02:42:27;;;;;;;;;;;;;;;3.31;nan;100817.91;5025884;28;20051;-86
2023/03/05 02:44:52;;;;;;;;;;;;;;;3.28;nan;100811.09;4989265;28;19922;-85
2023/03/05 02:47:17;;;;;;;;;;;;;;;3.29;nan;100811.94;4996714;28;20367;-85
2023/03/05 02:49:42;;;;;;;;;;;;;;;3.30;nan;100811.00;5022792;28;19917;-86
2023/03/05 02:52:07;;;;;;;;;;;;;;;3.31;nan;100805.69;4996503;28;19928;-85
2023/03/05 02:54:33;;;;;;;;;;;;;;;3.32;nan;100806.53;4994804;28;19917;-86
2023/03/05 02:56:58;;;;;;;;;;;;;;;3.32;nan;100807.38;5025223;28;20393;-85
2023/03/05 02:59:23;;;;;;;;;;;;;;;3.34;nan;100802.06;5009972;28;19917;-85
2023/03/05 03:01:48;;;;;;;;;;;;;;;3.33;nan;100784.69;4991459;28;19944;-85
2023/03/05 03:04:13;;;;;;;;;;;;;;;3.34;nan;100791.59;4991038;28;20017;-85
2023/03/05 03:06:38;;;;;;;;;;;;;;;3.31;nan;100790.03;4994652;28;20014;-85
2023/03/05 03:09:04;;;;;;;;;;;;;;;3.31;nan;100789.16;5011586;28;19927;-85
2023/03/05 03:11:29;;;;;;;;;;;;;;;3.31;nan;100786.53;5008938;28;19925;-85
2023/03/05 03:13:54;;;;;;;;;;;;;;;3.32;nan;100780.41;4995380;28;19914;-87
2023/03/05 03:16:19;;;;;;;;;;;;;;;3.32;nan;100783.00;4996095;28;19943;-85
2023/03/05 03:18:47;;;;;;;;;;;;;;;3.31;nan;100779.56;5013566;28;20264;-85
2023/03/05 03:21:17;;;;;;;;;;;;;;;3.31;nan;100781.31;5013695;28;19971;-85
2023/03/05 03:23:42;;;;;;;;;;;;;;;3.29;nan;100775.34;4996645;28;19921;-85
2023/03/05 03:26:07;;;;;;;;;;;;;;;3.30;nan;100774.44;4998044;28;20206;-85
2023/03/05 03:28:32;;;;;;;;;;;;;;;3.29;nan;100775.34;5015121;28;19940;-85
2023/03/05 03:30:58;;;;;;;;;;;;;;;3.29;nan;100768.38;5011348;28;20051;-85
2023/03/05 03:33:23;;;;;;;;;;;;;;;3.27;nan;100770.25;4993872;28;19949;-84
2023/03/05 03:35:48;;;;;;;;;;;;;;;3.28;nan;100766.66;4994863;28;19929;-84
2023/03/05 03:38:13;;;;;;;;;;;;;;;3.28;nan;100761.44;4995559;28;19924;-85
2023/03/05 03:40:40;;;;;;;;;;;;;;;3.28;nan;100763.22;4991913;28;19940;-85
2023/03/05 03:43:05;;;;;;;;;;;;;;;3.26;nan;100763.31;5014167;28;19921;-85
2023/03/05 03:45:30;;;;;;;;;;;;;;;3.23;nan;100763.53;4997472;28;19914;-85
2023/03/05 03:47:55;;;;;;;;;;;;;;;3.23;nan;100760.91;4998071;28;20007;-85
2023/03/05 03:50:23;;;;;;;;;;;;;;;3.24;nan;100753.91;4992570;28;20011;-85
2023/03/05 03:52:48;;;;;;;;;;;;;;;3.26;nan;100749.41;5014779;28;19964;-85
2023/03/05 03:55:14;;;;;;;;;;;;;;;3.26;nan;100750.25;4995012;28;20263;-86
2023/03/05 03:57:39;;;;;;;;;;;;;;;3.28;nan;100750.16;4996942;28;19913;-85
2023/03/05 04:00:09;;;;;;;;;;;;;;;3.30;nan;100748.28;4995563;28;20482;-85
2023/03/05 04:02:35;;;;;;;;;;;;;;;3.31;nan;100745.59;4994517;28;19925;-85
2023/03/05 04:05:00;;;;;;;;;;;;;;;3.32;nan;100746.41;5014741;28;20383;-85
2023/03/05 04:07:25;;;;;;;;;;;;;;;3.32;nan;100747.25;5014621;28;20248;-85
2023/03/05 04:09:50;;;;;;;;;;;;;;;3.33;nan;100740.25;4997087;28;19924;-86
2023/03/05 04:12:17;;;;;;;;;;;;;;;3.33;nan;100735.84;5017721;28;19932;-88
2023/03/05 04:14:43;;;;;;;;;;;;;;;3.34;nan;100724.47;5002090;28;19925;-87
2023/03/05 04:17:08;;;;;;;;;;;;;;;3.33;nan;100730.63;5019324;28;20247;-88
2023/03/05 04:19:33;;;;;;;;;;;;;;;3.34;nan;100729.69;4999881;28;20410;-88
2023/03/05 04:21:59;;;;;;;;;;;;;;;3.33;nan;100721.94;4998242;28;19925;-88
2023/03/05 04:24:24;;;;;;;;;;;;;;;3.34;nan;100708.78;5016863;28;19917;-87
2023/03/05 04:26:49;;;;;;;;;;;;;;;3.33;nan;100716.72;4998723;28;19917;-88
2023/03/05 04:29:14;;;;;;;;;;;;;;;3.32;nan;100715.06;4992093;28;21192;-86
2023/03/05 04:31:39;;;;;;;;;;;;;;;3.27;nan;100712.75;4991439;28;19921;-87
2023/03/05 04:34:05;;;;;;;;;;;;;;;3.23;nan;100710.44;4993198;28;19918;-85
2023/03/05 04:36:30;;;;;;;;;;;;;;;3.19;nan;100718.47;4999493;28;19913;-86
2023/03/05 04:38:55;;;;;;;;;;;;;;;3.19;nan;100713.25;4999553;28;19999;-87
2023/03/05 04:41:20;;;;;;;;;;;;;;;3.21;nan;100720.13;4999777;28;19917;-85
2023/03/05 04:43:46;;;;;;;;;;;;;;;3.13;nan;100721.47;4998940;28;20294;-87
2023/03/05 04:46:11;;;;;;;;;;;;;;;3.06;nan;100717.59;4996958;28;20598;-85
2023/03/05 04:48:36;;;;;;;;;;;;;;;3.02;nan;100729.16;4997488;28;20274;-85
2023/03/05 04:51:01;;;;;;;;;;;;;;;3.00;nan;100725.78;4996867;28;19957;-85
2023/03/05 04:53:27;;;;;;;;;;;;;;;3.04;nan;100716.84;4996589;28;20264;-85
2023/03/05 04:55:53;;;;;;;;;;;;;;;3.05;nan;100722.91;4996049;28;19924;-87
2023/03/05 04:58:18;;;;;;;;;;;;;;;3.09;nan;100724.38;4995237;28;20350;-85
2023/03/05 05:00:43;;;;;;;;;;;;;;;3.11;nan;100719.91;4995096;28;20022;-85
2023/03/05 05:03:08;;;;;;;;;;;;;;;3.13;nan;100720.63;4995766;28;19959;-87
2023/03/05 05:05:34;;;;;;;;;;;;;;;3.13;nan;100713.63;5019906;28;19914;-88
2023/03/05 05:07:59;;;;;;;;;;;;;;;3.16;nan;100717.81;5004522;28;19925;-87
2023/03/05 05:10:25;;;;;;;;;;;;;;;3.17;nan;100716.88;5001390;28;19987;-86
2023/03/05 05:12:50;;;;;;;;;;;;;;;3.19;nan;100720.22;5001799;28;19917;-87
2023/03/05 05:15:15;;;;;;;;;;;;;;;3.18;nan;100719.41;5001265;28;19924;-88
2023/03/05 05:17:41;;;;;;;;;;;;;;;3.18;nan;100713.34;5000924;28;19973;-87
2023/03/05 05:20:15;;;;;;;;;;;;;;;3.17;nan;100717.72;5000973;28;19913;-88
2023/03/05 05:22:41;;;;;;;;;;;;;;;3.17;nan;100714.25;4993512;28;19913;-87
2023/03/05 05:25:09;;;;;;;;;;;;;;;3.16;nan;100712.59;5001614;28;19914;-86
2023/03/05 05:27:40;;;;;;;;;;;;;;;3.15;nan;100713.53;5000895;28;19936;-87
2023/03/05 05:30:06;;;;;;;;;;;;;;;3.15;nan;100713.53;4998914;28;19936;-86
2023/03/05 05:32:31;;;;;;;;;;;;;;;3.16;nan;100717.81;4999515;28;19913;-88
2023/03/05 05:34:57;;;;;;;;;;;;;;;3.13;nan;100707.56;5016364;28;19913;-86
2023/03/05 05:37:23;;;;;;;;;;;;;;;3.12;nan;100716.34;4997859;28;19960;-86
2023/03/05 05:39:51;;;;;;;;;;;;;;;3.11;nan;100709.44;4998719;28;19920;-86
2023/03/05 05:42:17;;;;;;;;;;;;;;;3.11;nan;100709.44;4997954;28;19917;-86
2023/03/05 05:44:43;;;;;;;;;;;;;;;3.12;nan;100709.34;4998335;28;19924;-86
2023/03/05 05:47:08;;;;;;;;;;;;;;;3.12;nan;100706.75;4998636;28;19917;-87
2023/03/05 05:49:33;;;;;;;;;;;;;;;3.12;nan;100706.75;5016839;28;19913;-87
2023/03/05 05:51:58;;;;;;;;;;;;;;;3.13;nan;100704.97;4998260;28;19913;-86
2023/03/05 05:54:24;;;;;;;;;;;;;;;3.13;nan;100703.19;4998176;28;20004;-87
2023/03/05 05:56:49;;;;;;;;;;;;;;;3.12;nan;100698.91;4999105;28;20314;-86
2023/03/05 05:59:14;;;;;;;;;;;;;;;3.10;nan;100705.13;4998484;28;19921;-86
2023/03/05 06:01:39;;;;;;;;;;;;;;;3.11;nan;100699.00;4998209;28;19984;-86
2023/03/05 06:04:04;;;;;;;;;;;;;;;3.12;nan;100698.03;5015963;28;20287;-88
2023/03/05 06:06:30;;;;;;;;;;;;;;;3.13;nan;100699.75;4999821;28;19963;-85
2023/03/05 06:08:55;;;;;;;;;;;;;;;3.14;nan;100690.94;4995313;28;19992;-87
2023/03/05 06:11:21;;;;;;;;;;;;;;;3.14;nan;100701.41;4993466;28;19921;-87
2023/03/05 06:13:47;;;;;;;;;;;;;;;3.15;nan;100698.69;4993279;28;19971;-87
2023/03/05 06:16:14;;;;;;;;;;;;;;;3.15;nan;100695.25;4992034;28;19921;-87
2023/03/05 06:19:06;;;;;;;;;;;;;;;3.15;nan;100690.03;5010635;28;19927;-87
2023/03/05 06:21:32;;;;;;;;;;;;;;;3.14;nan;100697.00;4993587;28;19964;-87
2023/03/05 06:24:00;;;;;;;;;;;;;;;3.13;nan;100697.97;4993820;28;19968;-87
2023/03/05 06:26:25;;;;;;;;;;;;;;;3.14;nan;100694.41;5009804;28;20391;-87
2023/03/05 06:28:51;;;;;;;;;;;;;;;3.13;nan;100697.97;5009438;28;19936;-87
2023/03/05 06:31:20;;;;;;;;;;;;;;;3.12;nan;100701.53;5008610;28;19924;-87
2023/03/05 06:33:45;;;;;;;;;;;;;;;3.13;nan;100695.34;4992817;28;19924;-87
2023/03/05 06:36:17;;;;;;;;;;;;;;;3.14;nan;100699.63;4998139;28;19926;-87
2023/03/05 06:38:43;;;;;;;;;;;;;;;3.15;nan;100703.09;4989324;28;19921;-87
2023/03/05 06:41:14;;;;;;;;;;;;;;;3.15;nan;100695.25;4998815;28;19941;-87
2023/03/05 06:43:41;;;;;;;;;;;;;;;3.16;nan;100691.69;4998995;28;19924;-86
2023/03/05 06:46:09;;;;;;;;;;;;;;;3.17;nan;100696.84;4992489;28;20031;-88
2023/03/05 06:48:35;;;;;;;;;;;;;;;3.18;nan;100695.88;4999784;28;19973;-86
2023/03/05 06:51:00;;;;;;;;;;;;;;;3.19;nan;100696.72;4990611;28;19957;-87
2023/03/05 06:53:26;;;;;;;;;;;;;;;3.19;nan;100688.88;5000463;28;20000;-88
2023/03/05 06:55:57;;;;;;;;;;;;;;;3.18;nan;100698.50;4990053;28;19932;-88
2023/03/05 06:58:22;;;;;;;;;;;;;;;3.21;nan;100699.22;4994696;28;20005;-88
2023/03/05 07:00:48;;;;;;;;;;;;;;;3.26;nan;100697.97;5014853;28;19953;-88
2023/03/05 07:03:13;;;;;;;;;;;;;;;3.28;nan;100695.28;4997884;28;20350;-88
2023/03/05 07:05:41;;;;;;;;;;;;;;;3.27;nan;100693.63;4996493;28;20290;-88
2023/03/05 07:08:09;;;;;;;;;;;;;;;3.32;nan;100694.16;4984502;28;19981;-88
2023/03/05 07:10:39;;;;;;;;;;;;;;;3.36;nan;100695.59;4996416;28;19921;-88
2023/03/05 07:13:04;;;;;;;;;;;;;;;3.42;nan;100692.59;4996442;28;19925;-88
2023/03/05 07:15:30;;;;;;;;;;;;;;;3.49;nan;100701.72;4998767;28;19948;-88
2023/03/05 07:17:55;;;;;;;;;;;;;;;3.56;nan;100692.50;4998909;28;19959;-87
2023/03/05 07:20:20;;;;;;;;;;;;;;;3.64;nan;100692.00;4994053;28;19952;-87
2023/03/05 07:22:46;;;;;;;;;;;;;;;3.70;nan;100688.97;4994188;28;19925;-87
2023/03/05 07:25:11;;;;;;;;;;;;;;;3.76;nan;100685.09;5012769;28;19922;-87
2023/03/05 07:27:37;;;;;;;;;;;;;;;3.81;nan;100688.22;4993785;28;19921;-87
2023/03/05 07:30:05;;;;;;;;;;;;;;;3.85;nan;100681.03;4984301;28;19964;-87
2023/03/05 07:32:31;;;;;;;;;;;;;;;3.90;nan;100692.00;4993389;28;20335;-87
2023/03/05 07:34:56;;;;;;;;;;;;;;;3.98;nan;100687.06;5009960;28;19983;-87
2023/03/05 07:37:29;;;;;;;;;;;;;;;4.06;nan;100687.41;4994353;28;19956;-87
2023/03/05 07:39:57;;;;;;;;;;;;;;;4.14;nan;100692.94;4994158;28;19921;-87
2023/03/05 07:42:22;;;;;;;;;;;;;;;4.18;nan;100685.72;4995124;28;20555;-87
2023/03/05 07:44:48;;;;;;;;;;;;;;;4.21;nan;100685.50;4983203;28;20366;-87
2023/03/05 07:47:14;;;;;;;;;;;;;;;4.24;nan;100682.66;4997466;28;19914;-88
2023/03/05 07:49:43;;;;;;;;;;;;;;;4.29;nan;100679.72;5001223;28;19913;-88
2023/03/05 07:52:08;;;;;;;;;;;;;;;4.34;nan;100681.09;5003044;28;20169;-88
2023/03/05 07:54:36;;;;;;;;;;;;;;;4.42;nan;100681.38;5000291;28;19939;-87
2023/03/05 07:57:09;;;;;;;;;;;;;;;4.44;nan;100682.09;4998457;28;20005;-87
2023/03/05 07:59:41;;;;;;;;;;;;;;;4.49;nan;100679.16;4996856;28;20374;-87
2023/03/05 08:02:09;;;;;;;;;;;;;;;4.57;nan;100683.84;4995689;28;19932;-88
2023/03/05 08:04:34;;;;;;;;;;;;;;;4.63;nan;100680.81;4996471;28;19943;-88
2023/03/05 08:07:00;;;;;;;;;;;;;;;4.68;nan;100676.91;5014177;28;20394;-87
2023/03/05 08:09:26;;;;;;;;;;;;;;;4.77;nan;100688.50;4996533;28;19925;-87
2023/03/05 08:11:52;;;;;;;;;;;;;;;4.82;nan;100683.78;4995718;28;19921;-87
2023/03/05 08:14:22;;;;;;;;;;;;;;;4.89;nan;100686.78;4994926;28;20032;-87
2023/03/05 08:16:51;;;;;;;;;;;;;;;4.99;nan;100681.72;4987316;28;20396;-88
2023/03/05 08:19:20;;;;;;;;;;;;;;;5.11;nan;100683.44;5008423;28;19979;-87
2023/03/05 08:21:45;;;;;;;;;;;;;;;5.10;nan;100679.97;4992348;28;19922;-87
2023/03/05 08:24:28;;;;;;;;;;;;;;;5.21;nan;100679.19;4990996;28;19918;-87
2023/03/05 08:26:53;;;;;;;;;;;;;;;5.18;nan;100684.66;4992970;28;19931;-87
2023/03/05 08:29:19;;;;;;;;;;;;;;;5.32;nan;100686.25;4991895;28;20000;-87
2023/03/05 08:31:45;;;;;;;;;;;;;;;5.45;nan;100679.13;4991662;28;20417;-87
2023/03/05 08:34:10;;;;;;;;;;;;;;;;;;4974712;28;19917;-88
2023/03/05 08:36:35;;;;;;;;;;;;;;;;;;5009576;28;19917;-87
2023/03/05 08:39:01;;;;;;;;;;;;;;;;;;4993685;28;20397;-87
2023/03/05 08:41:26;;;;;;;;;;;;;;;;;;4993973;28;19925;-87
2023/03/05 08:43:54;;;;;;;;;;;;;;;;;;4993472;28;19917;-87
2023/03/05 08:46:19;;;;;;;;;;;;;;;;;;5008957;28;19917;-87
2023/03/05 08:48:44;;;;;;;;;;;;;;;;;;4993575;28;19917;-88
2023/03/05 08:51:09;;;;;;;;;;;;;;;;;;4995362;28;20287;-87
2023/03/05 08:53:34;;;;;;;;;;;;;;;;;;4993426;28;20282;-88
2023/03/05 08:55:59;;;;;;;;;;;;;;;;;;4996796;28;19924;-88
2023/03/05 08:58:25;;;;;;;;;;;;;;;;;;4984571;28;19927;-88
2023/03/05 09:00:52;;;;;;;;;;;;;;;;;;4996623;28;19921;-88
2023/03/05 09:03:25;;;;;;;;;;;;;;;;;;5001245;28;20011;-87
2023/03/05 09:05:53;;;;;;;;;;;;;;;;;;4990546;28;20394;-88
2023/03/05 09:08:18;;;;;;;;;;;;;;;;;;4977550;28;19918;-87
2023/03/05 09:10:43;;;;;;;;;;;;;;;;;;4994828;28;20004;-87
2023/03/05 09:13:09;;;;;;;;;;;;;;;;;;4992765;28;19940;-87
2023/03/05 09:15:34;;;;;;;;;;;;;;;;;;4996683;28;20451;-86
2023/03/05 09:17:59;;;;;;;;;;;;;;;;;;4994651;28;19921;-87
2023/03/05 09:20:24;;;;;;;;;;;;;;;;;;4992809;28;19941;-87
2023/03/05 09:22:49;;;;;;;;;;;;;;;;;;4995844;28;19917;-87
2023/03/05 09:25:17;;;;;;;;;;;;;;;;;;4993809;28;19945;-87
2023/03/05 09:27:45;;;;;;;;;;;;;;;;;;4984682;28;19921;-87
2023/03/05 09:30:10;;;;;;;;;;;;;;;;;;4998426;28;20334;-87
2023/03/05 09:32:35;;;;;;;;;;;;;;;;;;4983019;28;20430;-87
2023/03/05 09:35:00;;;;;;;;;;;;;;;;;;4991976;28;19972;-87
2023/03/05 09:37:28;;;;;;;;;;;;;;;;;;4993455;28;19917;-87
2023/03/05 09:39:53;;;;;;;;;;;;;;;;;;4989740;28;20048;-87
2023/03/05 09:42:18;;;;;;;;;;;;;;;;;;4994616;28;20347;-87
2023/03/05 09:44:43;;;;;;;;;;;;;;;;;;4983774;28;19918;-87
2023/03/05 09:47:08;;;;;;;;;;;;;;;;;;4994387;28;20009;-87
2023/03/05 09:49:34;;;;;;;;;;;;;;;;;;4993760;28;20288;-87
2023/03/05 09:52:06;;;;;;;;;;;;;;;;;;4994278;28;19967;-86
2023/03/05 09:54:32;;;;;;;;;;;;;;;;;;4993121;28;19929;-87
2023/03/05 09:56:57;;;;;;;;;;;;;;;;;;4993414;28;19920;-87
2023/03/05 09:59:37;;;;;;;;;;;;;;;;;;4984134;28;19921;-87
2023/03/05 10:02:02;;;;;;;;;;;;;;;;;;5004582;28;19928;-87
2023/03/05 10:04:33;;;;;;;;;;;;;;;;;;4990569;28;19917;-87
2023/03/05 10:06:58;;;;;;;;;;;;;;;;;;4982933;28;19917;-86
2023/03/05 10:09:23;;;;;;;;;;;;;;;;;;5011763;28;19913;-86
2023/03/05 10:11:48;;;;;;;;;;;;;;;;;;5009553;28;19918;-87
2023/03/05 10:14:14;;;;;;;;;;;;;;;;;;4993979;28;20281;-87
2023/03/05 10:16:39;;;;;;;;;;;;;;;;;;4993479;28;19923;-87
2023/03/05 10:19:11;;;;;;;;;;;;;;;;;;4991930;28;20409;-87
2023/03/05 10:21:37;;;;;;;;;;;;;;;;;;5008353;28;19932;-87
2023/03/05 10:24:02;;;;;;;;;;;;;;;;;;4989107;28;20395;-87
2023/03/05 10:26:27;;;;;;;;;;;;;;;;;;4990670;28;19924;-87
2023/03/05 10:28:52;;;;;;;;;;;;;;;;;;4999709;28;19925;-87
2023/03/05 10:31:17;;;;;;;;;;;;;;;;;;4992595;28;19917;-87
2023/03/05 10:33:42;;;;;;;;;;;;;;;;;;4984250;28;20052;-87
2023/03/05 10:36:09;;;;;;;;;;;;;;;;;;4996789;28;19913;-87
2023/03/05 10:38:35;;;;;;;;;;;;;;;;;;4995962;28;19917;-86
2023/03/05 10:41:00;;;;;;;;;;;;;;;;;;4995029;28;19929;-86
2023/03/05 10:43:25;;;;;;;;;;;;;;;;;;4989804;28;19925;-88
2023/03/05 10:45:50;;;;;;;;;;;;;;;;;;4986260;28;20397;-88
2023/03/05 10:48:16;;;;;;;;;;;;;;;;;;5009896;28;19917;-88
2023/03/05 10:50:41;;;;;;;;;;;;;;;;;;4992519;28;19996;-88
2023/03/05 10:53:06;;;;;;;;;;;;;;;;;;4990590;28;19924;-88
2023/03/05 10:55:31;;;;;;;;;;;;;;;;;;4992772;28;19917;-87
2023/03/05 10:57:57;;;;;;;;;;;;;;;;;;4991547;28;20430;-88
2023/03/05 11:00:24;;;;;;;;;;;;;;;;;;4992513;28;20279;-87
2023/03/05 11:02:52;;;;;;;;;;;;;;;;;;4993845;28;20389;-88
2023/03/05 11:05:17;;;;;;;;;;;;;;;;;;4989580;28;20027;-88
2023/03/05 11:07:42;;;;;;;;;;;;;;;;;;4989226;28;19988;-88
2023/03/05 11:10:10;;;;;;;;;;;;;;;;;;4991286;28;20284;-88
2023/03/05 11:12:35;;;;;;;;;;;;;;;;;;4987515;28;20026;-88
2023/03/05 11:15:01;;;;;;;;;;;;;;;;;;4989926;28;19921;-88
2023/03/05 11:17:29;;;;;;;;;;;;;;;;;;4989434;28;19921;-87
2023/03/05 11:19:54;;;;;;;;;;;;;;;;;;4991023;28;19961;-87
2023/03/05 11:22:19;;;;;;;;;;;;;;;;;;4986848;28;19980;-87
2023/03/05 11:24:45;;;;;;;;;;;;;;;;;;5008300;28;19933;-88
2023/03/05 11:27:10;;;;;;;;;;;;;;;;;;4990361;28;19918;-87
2023/03/05 11:29:35;;;;;;;;;;;;;;;;;;4987937;28;19922;-88
2023/03/05 11:32:03;;;;;;;;;;;;;;;;;;4992489;28;20175;-88
2023/03/05 11:34:29;;;;;;;;;;;;;;;;;;4985394;28;19985;-87
2023/03/05 11:37:06;;;;;;;;;;;;;;;;;;4991749;28;19976;-88
2023/03/05 11:39:34;;;;;;;;;;;;;;;;;;4993900;28;19921;-87
2023/03/05 11:41:59;;;;;;;;;;;;;;;;;;4992451;28;19922;-88
2023/03/05 11:44:24;;;;;;;;;;;;;;;;;;4991443;28;19925;-88
2023/03/05 11:46:49;;;;;;;;;;;;;;;;;;5007589;28;19917;-87
2023/03/05 11:49:15;;;;;;;;;;;;;;;;;;4992333;28;20008;-88
2023/03/05 11:51:43;;;;;;;;;;;;;;;;;;5007764;28;19917;-87
2023/03/05 11:54:08;;;;;;;;;;;;;;;;;;5007933;28;19967;-87
2023/03/05 11:56:33;;;;;;;;;;;;;;;;;;4986907;28;20024;-87
2023/03/05 11:58:58;;;;;;;;;;;;;;;;;;4984181;28;19987;-88
2023/03/05 12:01:23;;;;;;;;;;;;;;;;;;4992366;28;19928;-87
2023/03/05 12:03:52;;;;;;;;;;;;;;;6.78;nan;100480.53;4983286;28;19917;-87
2023/03/05 12:06:36;;;;;;;;;;;;;;;6.75;nan;100484.25;4991678;28;19918;-87
2023/03/05 12:09:06;;;;;;;;;;;;;;;6.81;nan;100469.75;4992856;28;19944;-87
2023/03/05 12:11:32;;;;;;;;;;;;;;;6.82;nan;100468.81;4994372;28;19928;-88
2023/03/05 12:14:16;;;;;;;;;;;;;;;6.66;nan;100469.25;4997675;28;19917;-88
2023/03/05 12:16:55;;;;;;;;;;;;;;;6.47;nan;100463.84;5013213;28;19944;-87
2023/03/05 12:19:29;;;;;;;;;;;;;;;6.38;nan;100458.38;5013424;28;19924;-87
2023/03/05 12:21:55;;;;;;;;;;;;;;;6.31;nan;100456.41;4992712;28;19928;-87
2023/03/05 12:24:23;;;;;;;;;;;;;;;6.19;nan;100454.78;5000895;28;19945;-87
2023/03/05 12:26:52;;;;;;;;;;;;;;;6.17;nan;100449.66;4994428;28;19983;-87
2023/03/05 12:29:40;;;;;;;;;;;;;;;6.14;nan;100450.72;4989985;28;19917;-87
2023/03/05 12:32:27;;;;;;;;;;;;;;;6.03;nan;100450.78;4990178;28;19922;-88
2023/03/05 12:35:11;;;;;;;;;;;;;;;5.94;nan;100446.28;4992553;28;19961;-88
2023/03/05 12:37:42;;;;;;;;;;;;;;;5.88;nan;100441.47;4981399;28;19918;-87
2023/03/05 12:40:09;;;;;;;;;;;;;;;5.93;nan;100440.19;5011497;28;19925;-88
2023/03/05 12:42:37;;;;;;;;;;;;;;;5.98;nan;100431.94;4988632;28;19929;-88
2023/03/05 12:45:13;;;;;;;;;;;;;;;6.00;nan;100432.66;4990710;28;19918;-88
2023/03/05 12:47:42;;;;;;;;;;;;;;;6.05;nan;100435.72;4992516;28;19928;-87
2023/03/05 12:50:26;;;;;;;;;;;;;;;6.13;nan;100429.88;4992536;28;20271;-88
2023/03/05 12:52:52;;;;;;;;;;;;;;;6.24;nan;100418.47;5007490;28;19953;-87
2023/03/05 12:55:33;;;;;;;;;;;;;;;6.30;nan;100420.59;4977930;28;19929;-88
2023/03/05 12:58:21;;;;;;;;;;;;;;;6.36;nan;100420.94;4989138;28;20319;-87
2023/03/05 13:01:12;;;;;;;;;;;;;;;6.26;nan;100414.75;5007012;28;19922;-88
2023/03/05 13:03:59;;;;;;;;;;;;;;;6.23;nan;100414.19;4977003;28;19936;-88
2023/03/05 13:06:27;;;;;;;;;;;;;;;6.13;nan;100414.94;5009951;28;20347;-87
2023/03/05 13:08:57;;;;;;;;;;;;;;;6.13;nan;100409.69;4975858;28;19918;-87
2023/03/05 13:11:23;;;;;;;;;;;;;;;6.02;nan;100401.88;5000699;28;19975;-87
2023/03/05 13:13:50;;;;;;;;;;;;;;;6.01;nan;100407.25;4988575;28;19921;-88
2023/03/05 13:16:27;;;;;;;;;;;;;;;6.03;nan;100397.44;4988374;28;20401;-88
2023/03/05 13:18:56;;;;;;;;;;;;;;;6.18;nan;100395.38;5008934;28;20131;-88
2023/03/05 13:21:25;;;;;;;;;;;;;;;6.14;nan;100398.22;4995242;28;20003;-88
2023/03/05 13:23:56;;;;;;;;;;;;;;;6.12;nan;100396.69;5000460;28;19921;-88
2023/03/05 13:26:42;;;;;;;;;;;;;;;6.18;nan;100401.44;4988840;28;19970;-88
2023/03/05 13:29:15;;;;;;;;;;;;;;;6.26;nan;100398.19;4986660;28;20403;-88
2023/03/05 13:31:43;;;;;;;;;;;;;;;6.26;nan;100391.13;4990167;28;19917;-87
2023/03/05 13:34:17;;;;;;;;;;;;;;;6.21;nan;100395.94;4988354;28;20096;-87
2023/03/05 13:36:53;;;;;;;;;;;;;;;6.19;nan;100394.41;4989105;28;19921;-87
2023/03/05 13:39:30;;;;;;;;;;;;;;;;;;;;;
2023/03/05 13:41:57;;;;;;;;;;;;;;;6.11;nan;100379.28;4997635;28;19924;-87
2023/03/05 13:44:22;;;;;;;;;;;;;;;6.16;nan;100377.94;4967863;28;19957;-87
2023/03/05 13:46:47;;;;;;;;;;;;;;;6.11;nan;100374.84;4975379;28;20394;-87
2023/03/05 13:49:18;;;;;;;;;;;;;;;6.08;nan;100374.28;4990640;28;19927;-88
2023/03/05 13:51:44;;;;;;;;;;;;;;;6.04;nan;100378.94;4990620;28;19944;-87
2023/03/05 13:54:13;;;;;;;;;;;;;;;6.06;nan;100370.97;4985113;28;19925;-87